Time,TemperatureF,DewpointF,PressureIn,WindDirection,WindDirectionDegrees,WindSpeedMPH,WindSpeedGustMPH,Humidity,HourlyPrecipIn,Conditions,Clouds,dailyrainin,SolarRadiationWatts/m^2,SoftwareType,DateUTC
2013-05-24 00:00:00,65.6,65.0,29.73,NW,321,0.0,0.0,96,0.03,,,0.00,0,weatherlink.com 1.10,2013-05-24 04:00:00,
2013-05-24 00:14:00,65.6,65.0,29.73,NW,321,0.0,1.0,96,0.04,,,0.01,0,weatherlink.com 1.10,2013-05-24 04:14:00,
2013-05-24 00:29:00,65.5,64.0,29.73,WNW,296,0.0,2.0,96,0.04,,,0.02,0,weatherlink.com 1.10,2013-05-24 04:29:00,
2013-05-24 00:45:00,65.4,64.0,29.72,West,272,0.0,2.0,96,0.04,,,0.03,0,weatherlink.com 1.10,2013-05-24 04:45:00,
2013-05-24 01:00:00,65.2,64.0,29.71,West,272,0.0,1.0,96,0.04,,,0.04,0,weatherlink.com 1.10,2013-05-24 05:00:00,
2013-05-24 01:15:00,64.7,64.0,29.71,West,272,0.0,1.0,96,0.04,,,0.05,0,weatherlink.com 1.10,2013-05-24 05:15:00,
2013-05-24 01:30:00,64.2,63.0,29.72,West,272,0.0,0.0,96,0.04,,,0.06,0,weatherlink.com 1.10,2013-05-24 05:30:00,
2013-05-24 01:45:00,63.9,63.0,29.71,West,272,0.0,0.0,96,0.04,,,0.07,0,weatherlink.com 1.10,2013-05-24 05:45:00,
2013-05-24 02:00:00,63.7,63.0,29.71,West,272,0.0,0.0,96,0.05,,,0.09,0,weatherlink.com 1.10,2013-05-24 06:00:00,
2013-05-24 02:14:00,63.6,63.0,29.70,West,272,0.0,0.0,96,0.04,,,0.09,0,weatherlink.com 1.10,2013-05-24 06:14:00,
2013-05-24 02:30:00,63.4,62.0,29.70,West,272,0.0,0.0,96,0.04,,,0.10,0,weatherlink.com 1.10,2013-05-24 06:30:00,
2013-05-24 02:45:00,63.3,62.0,29.69,West,272,0.0,1.0,96,0.04,,,0.11,0,weatherlink.com 1.10,2013-05-24 06:45:00,
2013-05-24 03:00:00,63.1,62.0,29.68,West,272,0.0,0.0,96,0.02,,,0.11,0,weatherlink.com 1.10,2013-05-24 07:00:00,
2013-05-24 03:15:00,62.9,62.0,29.69,West,272,0.0,0.0,96,0.03,,,0.12,0,weatherlink.com 1.10,2013-05-24 07:15:00,
2013-05-24 03:30:00,62.6,62.0,29.68,West,272,0.0,1.0,96,0.03,,,0.13,0,weatherlink.com 1.10,2013-05-24 07:30:00,
2013-05-24 03:46:00,62.4,61.0,29.68,West,272,1.0,1.0,96,0.02,,,0.13,0,weatherlink.com 1.10,2013-05-24 07:46:00,
2013-05-24 04:01:00,62.1,61.0,29.67,West,272,0.0,0.0,96,0.03,,,0.14,0,weatherlink.com 1.10,2013-05-24 08:01:00,
2013-05-24 04:16:00,61.8,61.0,29.67,West,272,0.0,0.0,96,0.03,,,0.15,0,weatherlink.com 1.10,2013-05-24 08:16:00,
2013-05-24 04:31:00,61.5,60.0,29.67,West,272,0.0,0.0,96,0.02,,,0.15,0,weatherlink.com 1.10,2013-05-24 08:31:00,
2013-05-24 04:46:00,61.3,60.0,29.68,West,272,0.0,0.0,96,0.03,,,0.16,0,weatherlink.com 1.10,2013-05-24 08:46:00,
2013-05-24 05:01:00,61.2,60.0,29.68,West,272,0.0,0.0,96,0.03,,,0.17,0,weatherlink.com 1.10,2013-05-24 09:01:00,
2013-05-24 05:16:00,61.0,60.0,29.69,West,272,0.0,0.0,97,0.02,,,0.17,0,weatherlink.com 1.10,2013-05-24 09:16:00,
2013-05-24 05:31:00,60.8,60.0,29.69,West,272,0.0,0.0,96,0.03,,,0.18,0,weatherlink.com 1.10,2013-05-24 09:31:00,
2013-05-24 05:46:00,60.8,60.0,29.70,West,272,0.0,1.0,96,0.02,,,0.18,0,weatherlink.com 1.10,2013-05-24 09:46:00,
2013-05-24 06:01:00,60.7,60.0,29.70,West,272,0.0,0.0,97,0.02,,,0.19,16,weatherlink.com 1.10,2013-05-24 10:01:00,
2013-05-24 06:16:00,61.0,60.0,29.70,West,272,0.0,0.0,97,0.02,,,0.19,11,weatherlink.com 1.10,2013-05-24 10:16:00,
2013-05-24 06:31:00,61.1,60.0,29.71,West,272,0.0,0.0,97,0.01,,,0.19,11,weatherlink.com 1.10,2013-05-24 10:31:00,
2013-05-24 06:46:00,61.3,61.0,29.71,West,272,0.0,0.0,97,0.01,,,0.19,18,weatherlink.com 1.10,2013-05-24 10:46:00,
2013-05-24 07:01:00,61.4,61.0,29.72,West,272,0.0,0.0,97,0.01,,,0.20,16,weatherlink.com 1.10,2013-05-24 11:01:00,
2013-05-24 07:16:00,61.5,61.0,29.72,West,272,0.0,1.0,97,0.01,,,0.20,18,weatherlink.com 1.10,2013-05-24 11:16:00,
2013-05-24 07:31:00,61.0,60.0,29.74,South,181,3.0,4.0,97,0.02,,,0.21,14,weatherlink.com 1.10,2013-05-24 11:31:00,
2013-05-24 07:46:00,59.3,58.0,29.74,NW,304,2.0,2.0,96,0.02,,,0.21,28,weatherlink.com 1.10,2013-05-24 11:46:00,
2013-05-24 08:00:00,58.3,57.0,29.76,NW,304,0.0,2.0,96,0.01,,,0.21,25,weatherlink.com 1.10,2013-05-24 12:00:00,
2013-05-24 08:16:00,57.1,56.0,29.77,SW,231,1.0,3.0,95,0.01,,,0.21,26,weatherlink.com 1.10,2013-05-24 12:16:00,
2013-05-24 08:31:00,55.6,54.0,29.78,NNW,340,1.0,4.0,94,0.00,,,0.21,42,weatherlink.com 1.10,2013-05-24 12:31:00,
2013-05-24 08:46:00,54.7,53.0,29.79,North,5,0.0,2.0,92,0.01,,,0.22,37,weatherlink.com 1.10,2013-05-24 12:46:00,
2013-05-24 09:01:00,54.1,52.0,29.79,North,5,0.0,2.0,91,0.01,,,0.22,53,weatherlink.com 1.10,2013-05-24 13:01:00,
2013-05-24 09:16:00,53.9,51.0,29.81,North,5,0.0,1.0,90,0.02,,,0.23,23,weatherlink.com 1.10,2013-05-24 13:16:00,
2013-05-24 09:31:00,53.3,50.0,29.82,NW,311,0.0,2.0,88,0.02,,,0.23,23,weatherlink.com 1.10,2013-05-24 13:31:00,
2013-05-24 09:46:00,52.9,49.0,29.83,NNW,348,0.0,5.0,86,0.01,,,0.23,32,weatherlink.com 1.10,2013-05-24 13:46:00,
2013-05-24 10:01:00,53.0,49.0,29.83,East,88,1.0,2.0,86,0.01,,,0.23,67,weatherlink.com 1.10,2013-05-24 14:01:00,
2013-05-24 10:16:00,52.9,48.0,29.84,SW,229,2.0,3.0,84,0.00,,,0.23,51,weatherlink.com 1.10,2013-05-24 14:16:00,
2013-05-24 10:31:00,53.0,48.0,29.84,North,5,0.0,4.0,84,0.00,,,0.23,72,weatherlink.com 1.10,2013-05-24 14:31:00,
2013-05-24 10:46:00,53.1,48.0,29.85,West,277,1.0,6.0,82,0.00,,,0.23,179,weatherlink.com 1.10,2013-05-24 14:46:00,
2013-05-24 11:01:00,52.8,47.0,29.86,WNW,303,2.0,6.0,82,0.01,,,0.24,111,weatherlink.com 1.10,2013-05-24 15:01:00,
2013-05-24 11:17:00,52.5,47.0,29.85,West,266,3.0,6.0,82,0.01,,,0.24,172,weatherlink.com 1.10,2013-05-24 15:17:00,
2013-05-24 11:32:00,52.5,46.0,29.86,NNW,330,1.0,7.0,79,0.01,,,0.24,144,weatherlink.com 1.10,2013-05-24 15:32:00,
2013-05-24 11:47:00,52.1,46.0,29.87,South,186,5.0,10.0,79,0.01,,,0.25,109,weatherlink.com 1.10,2013-05-24 15:47:00,
2013-05-24 12:02:00,51.7,45.0,29.87,West,281,1.0,8.0,78,0.01,,,0.25,121,weatherlink.com 1.10,2013-05-24 16:02:00,
2013-05-24 12:17:00,51.6,45.0,29.87,NNW,335,2.0,5.0,78,0.01,,,0.25,160,weatherlink.com 1.10,2013-05-24 16:17:00,
2013-05-24 12:32:00,51.4,45.0,29.87,West,261,1.0,9.0,79,0.01,,,0.25,183,weatherlink.com 1.10,2013-05-24 16:32:00,
2013-05-24 12:46:00,50.8,45.0,29.88,WNW,302,1.0,6.0,79,0.00,,,0.25,81,weatherlink.com 1.10,2013-05-24 16:46:00,
2013-05-24 13:02:00,50.4,45.0,29.89,WNW,298,2.0,5.0,81,0.00,,,0.25,54,weatherlink.com 1.10,2013-05-24 17:02:00,
2013-05-24 13:17:00,50.0,45.0,29.88,NW,305,1.0,7.0,84,0.00,,,0.25,104,weatherlink.com 1.10,2013-05-24 17:17:00,
2013-05-24 13:32:00,49.5,46.0,29.89,SSW,205,5.0,7.0,86,0.01,,,0.26,105,weatherlink.com 1.10,2013-05-24 17:32:00,
2013-05-24 13:47:00,49.3,46.0,29.89,South,183,3.0,5.0,87,0.01,,,0.26,62,weatherlink.com 1.10,2013-05-24 17:47:00,
2013-05-24 14:02:00,49.1,45.0,29.89,WNW,285,0.0,6.0,87,0.01,,,0.26,84,weatherlink.com 1.10,2013-05-24 18:02:00,
2013-05-24 14:17:00,48.8,46.0,29.91,NW,309,1.0,7.0,89,0.01,,,0.26,46,weatherlink.com 1.10,2013-05-24 18:17:00,
2013-05-24 14:32:00,48.4,46.0,29.90,NE,39,2.0,5.0,90,0.00,,,0.26,58,weatherlink.com 1.10,2013-05-24 18:32:00,
2013-05-24 14:47:00,48.0,46.0,29.90,SW,225,0.0,6.0,91,0.01,,,0.27,105,weatherlink.com 1.10,2013-05-24 18:47:00,
2013-05-24 15:02:00,48.0,46.0,29.90,SSW,192,4.0,4.0,92,0.01,,,0.27,144,weatherlink.com 1.10,2013-05-24 19:02:00,
2013-05-24 15:17:00,48.3,46.0,29.91,SSE,156,3.0,6.0,93,0.01,,,0.27,141,weatherlink.com 1.10,2013-05-24 19:17:00,
2013-05-24 15:32:00,48.6,47.0,29.91,NNW,348,3.0,4.0,93,0.01,,,0.27,107,weatherlink.com 1.10,2013-05-24 19:32:00,
2013-05-24 15:47:00,48.7,47.0,29.90,WNW,302,3.0,7.0,92,0.00,,,0.27,120,weatherlink.com 1.10,2013-05-24 19:47:00,
2013-05-24 16:02:00,48.9,46.0,29.90,WSW,239,2.0,6.0,91,0.00,,,0.27,172,weatherlink.com 1.10,2013-05-24 20:02:00,
2013-05-24 16:17:00,48.9,46.0,29.91,South,175,9.0,10.0,90,0.00,,,0.27,121,weatherlink.com 1.10,2013-05-24 20:17:00,
2013-05-24 16:32:00,48.8,46.0,29.91,SSE,164,2.0,8.0,89,0.00,,,0.27,149,weatherlink.com 1.10,2013-05-24 20:32:00,
2013-05-24 16:47:00,48.5,45.0,29.93,South,184,2.0,6.0,88,0.00,,,0.27,84,weatherlink.com 1.10,2013-05-24 20:47:00,
2013-05-24 17:02:00,48.0,45.0,29.93,WNW,287,3.0,6.0,88,0.00,,,0.27,105,weatherlink.com 1.10,2013-05-24 21:02:00,
2013-05-24 17:17:00,47.6,44.0,29.93,NNW,340,0.0,7.0,88,0.01,,,0.28,91,weatherlink.com 1.10,2013-05-24 21:17:00,
2013-05-24 17:32:00,47.4,44.0,29.93,SE,134,1.0,8.0,88,0.01,,,0.28,65,weatherlink.com 1.10,2013-05-24 21:32:00,
2013-05-24 17:46:00,47.2,44.0,29.93,WNW,303,4.0,7.0,88,0.01,,,0.28,53,weatherlink.com 1.10,2013-05-24 21:46:00,
2013-05-24 18:01:00,47.0,44.0,29.93,North,351,6.0,7.0,89,0.01,,,0.28,37,weatherlink.com 1.10,2013-05-24 22:01:00,
2013-05-24 18:16:00,46.4,44.0,29.93,North,9,3.0,5.0,90,0.00,,,0.28,30,weatherlink.com 1.10,2013-05-24 22:16:00,
2013-05-24 18:32:00,46.0,43.0,29.93,NNW,329,5.0,5.0,90,0.00,,,0.28,25,weatherlink.com 1.10,2013-05-24 22:32:00,
2013-05-24 18:47:00,45.5,43.0,29.95,WSW,257,2.0,5.0,91,0.00,,,0.28,28,weatherlink.com 1.10,2013-05-24 22:47:00,
2013-05-24 19:02:00,45.3,43.0,29.96,WNW,290,0.0,5.0,91,0.01,,,0.29,14,weatherlink.com 1.10,2013-05-24 23:02:00,
2013-05-24 19:17:00,45.0,43.0,29.96,NW,311,1.0,10.0,92,0.01,,,0.29,7,weatherlink.com 1.10,2013-05-24 23:17:00,
2013-05-24 19:33:00,44.4,42.0,29.98,South,183,0.0,4.0,92,0.01,,,0.29,0,weatherlink.com 1.10,2013-05-24 23:33:00,
2013-05-24 19:48:00,44.1,42.0,29.98,West,268,1.0,5.0,92,0.01,,,0.29,0,weatherlink.com 1.10,2013-05-24 23:48:00,
2013-05-24 20:03:00,43.9,42.0,29.97,North,349,1.0,7.0,93,0.00,,,0.29,0,weatherlink.com 1.10,2013-05-25 00:03:00,
2013-05-24 20:18:00,43.6,42.0,29.98,NNE,32,1.0,5.0,92,0.00,,,0.29,0,weatherlink.com 1.10,2013-05-25 00:18:00,
2013-05-24 20:33:00,43.5,42.0,29.99,West,271,0.0,5.0,93,0.00,,,0.29,0,weatherlink.com 1.10,2013-05-25 00:33:00,
2013-05-24 20:48:00,43.2,41.0,29.99,North,5,1.0,8.0,93,0.00,,,0.29,0,weatherlink.com 1.10,2013-05-25 00:48:00,
2013-05-24 21:03:00,42.8,41.0,29.98,NNW,339,2.0,5.0,93,0.00,,,0.29,0,weatherlink.com 1.10,2013-05-25 01:03:00,
2013-05-24 21:18:00,42.6,41.0,29.98,South,184,6.0,7.0,93,0.00,,,0.29,0,weatherlink.com 1.10,2013-05-25 01:18:00,
2013-05-24 21:33:00,42.5,41.0,29.98,North,355,4.0,7.0,93,0.00,,,0.29,0,weatherlink.com 1.10,2013-05-25 01:33:00,
2013-05-24 21:48:00,42.3,41.0,29.98,South,188,3.0,6.0,93,0.00,,,0.29,0,weatherlink.com 1.10,2013-05-25 01:48:00,
2013-05-24 22:03:00,42.3,41.0,29.98,NNW,347,2.0,4.0,93,0.00,,,0.29,0,weatherlink.com 1.10,2013-05-25 02:03:00,
2013-05-24 22:18:00,42.3,41.0,29.98,WNW,288,0.0,7.0,93,0.00,,,0.29,0,weatherlink.com 1.10,2013-05-25 02:18:00,
2013-05-24 22:33:00,42.3,41.0,29.98,South,169,5.0,9.0,94,0.00,,,0.29,0,weatherlink.com 1.10,2013-05-25 02:33:00,
2013-05-24 22:48:00,42.3,41.0,29.96,WSW,248,1.0,8.0,94,0.00,,,0.29,0,weatherlink.com 1.10,2013-05-25 02:48:00,
2013-05-24 23:03:00,42.3,41.0,29.96,WSW,252,2.0,4.0,94,0.00,,,0.29,0,weatherlink.com 1.10,2013-05-25 03:03:00,
2013-05-24 23:18:00,42.4,41.0,29.98,WSW,240,1.0,4.0,94,0.00,,,0.29,0,weatherlink.com 1.10,2013-05-25 03:18:00,
2013-05-24 23:33:00,42.6,41.0,29.99,South,181,1.0,5.0,94,0.00,,,0.29,0,weatherlink.com 1.10,2013-05-25 03:33:00,
2013-05-24 23:48:00,42.7,41.0,29.98,North,355,0.0,9.0,94,0.00,,,0.29,0,weatherlink.com 1.10,2013-05-25 03:48:00,